createdAt,value
2023-11-24T00:01:21.037Z,99795.66
2023-11-24T00:04:23.335Z,99802.03
2023-11-24T00:07:26.250Z,99795.13
2023-11-24T00:10:30.066Z,99791.78
2023-11-24T00:13:32.264Z,99780.44
2023-11-24T00:16:34.629Z,99764.13
2023-11-24T00:19:36.792Z,99764.91
2023-11-24T00:22:39.223Z,99759.56
2023-11-24T00:25:41.381Z,99750.25
2023-11-24T00:28:43.488Z,99749.31
2023-11-24T00:31:47.088Z,99730.78
2023-11-24T00:34:49.563Z,99720.50
2023-11-24T00:37:51.671Z,99718.34
2023-11-24T00:40:54.184Z,99700.38
2023-11-24T00:43:56.261Z,99702.97
2023-11-24T00:46:58.406Z,99688.69
2023-11-24T00:50:00.749Z,99680.56
2023-11-24T00:53:03.028Z,99683.75
2023-11-24T00:56:05.257Z,99687.50
2023-11-24T00:59:07.428Z,99678.25
2023-11-24T01:02:09.598Z,99668.41
2023-11-24T01:05:11.727Z,99660.50
2023-11-24T01:08:13.938Z,99655.22
2023-11-24T01:11:16.028Z,99663.50
2023-11-24T01:14:18.237Z,99664.06
2023-11-24T01:17:22.253Z,99639.34
2023-11-24T01:20:26.468Z,99651.41
2023-11-24T01:23:28.534Z,99650.72
2023-11-24T01:26:30.907Z,99647.16
2023-11-24T01:29:33.106Z,99642.16
2023-11-24T01:32:35.353Z,99645.63
2023-11-24T01:35:37.476Z,99641.19
2023-11-24T01:38:39.828Z,99626.97
2023-11-24T01:41:41.964Z,99615.41
2023-11-24T01:44:44.093Z,99594.66
2023-11-24T01:47:48.303Z,99595.13
2023-11-24T01:50:50.478Z,99584.31
2023-11-24T01:53:52.709Z,99574.34
2023-11-24T01:56:54.925Z,99585.91
2023-11-24T01:59:57.049Z,99569.81
2023-11-24T02:02:59.309Z,99561.88
2023-11-24T02:06:02.076Z,99565.34
2023-11-24T02:09:04.417Z,99554.44
2023-11-24T02:12:06.630Z,99542.81
2023-11-24T02:15:08.941Z,99532.03
2023-11-24T02:18:11.286Z,99546.31
2023-11-24T02:21:13.453Z,99523.13
2023-11-24T02:24:15.625Z,99510.78
2023-11-24T02:27:21.706Z,99497.84
2023-11-24T02:30:23.962Z,99475.94
2023-11-24T02:33:26.129Z,99475.13
2023-11-24T02:36:31.715Z,99474.13
2023-11-24T02:39:33.934Z,99466.63
2023-11-24T02:42:36.603Z,99457.78
2023-11-24T02:45:38.804Z,99455.75
2023-11-24T02:48:41.422Z,99454.50
2023-11-24T02:51:43.697Z,99448.75
2023-11-24T02:54:45.805Z,99445.28
2023-11-24T02:57:48.892Z,99442.16
2023-11-24T03:00:51.090Z,99438.66
2023-11-24T03:03:53.652Z,99440.16
2023-11-24T03:06:55.933Z,99453.69
2023-11-24T03:09:58.164Z,99438.47
2023-11-24T03:13:00.489Z,99434.03
2023-11-24T03:16:03.303Z,99422.50
2023-11-24T03:19:05.578Z,99414.25
2023-11-24T03:22:08.536Z,99398.22
2023-11-24T03:25:11.663Z,99393.78
2023-11-24T03:28:14.334Z,99391.50
2023-11-24T03:31:16.420Z,99398.34
2023-11-24T03:34:18.604Z,99385.72
2023-11-24T03:37:20.806Z,99375.69
2023-11-24T03:40:23.025Z,99360.56
2023-11-24T03:43:25.117Z,99349.22
2023-11-24T03:46:27.235Z,99344.72
2023-11-24T03:49:29.446Z,99338.00
2023-11-24T03:52:31.585Z,99343.38
2023-11-24T03:55:33.722Z,99335.53
2023-11-24T03:58:36.109Z,99336.50
2023-11-24T04:01:38.414Z,99331.53
2023-11-24T04:04:40.671Z,99331.59
2023-11-24T04:07:42.786Z,99320.97
2023-11-24T04:10:44.947Z,99309.88
2023-11-24T04:13:47.068Z,99306.50
2023-11-24T04:16:49.245Z,99284.72
2023-11-24T04:19:51.387Z,99271.72
2023-11-24T04:22:53.511Z,99263.88
2023-11-24T04:25:55.623Z,99256.88
2023-11-24T04:28:58.719Z,99257.97
2023-11-24T04:32:00.929Z,99261.87
2023-11-24T04:35:03.129Z,99257.66
2023-11-24T04:38:05.286Z,99275.91
2023-11-24T04:41:07.988Z,99253.44
2023-11-24T04:44:10.541Z,99262.97
2023-11-24T04:47:12.645Z,99240.75
2023-11-24T04:50:15.842Z,99235.38
2023-11-24T04:53:18.218Z,99229.31
2023-11-24T04:56:20.431Z,99229.09
2023-11-24T04:59:23.155Z,99231.44
2023-11-24T05:02:25.402Z,99228.41
2023-11-24T05:05:27.531Z,99219.03
2023-11-24T05:08:29.609Z,99218.31
2023-11-24T05:11:31.714Z,99211.53
2023-11-24T05:14:33.895Z,99208.19
2023-11-24T05:17:40.064Z,99191.81
2023-11-24T05:20:42.250Z,99194.31
2023-11-24T05:23:44.485Z,99190.00
2023-11-24T05:26:47.656Z,99175.75
2023-11-24T05:29:50.802Z,99177.53
2023-11-24T05:32:53.086Z,99187.66
2023-11-24T05:35:57.789Z,99169.84
2023-11-24T05:39:00.409Z,99164.16
2023-11-24T05:42:02.656Z,99145.44
2023-11-24T05:45:05.081Z,99141.38
2023-11-24T05:48:07.556Z,99145.97
2023-11-24T05:51:09.775Z,99136.53
2023-11-24T05:54:13.816Z,99138.88
2023-11-24T05:57:16.670Z,99123.63
2023-11-24T06:00:19.905Z,99137.09
2023-11-24T06:03:22.018Z,99138.97
2023-11-24T06:06:23.885Z,99139.03
2023-11-24T06:09:25.960Z,99139.03
2023-11-24T06:12:30.207Z,99134.13
2023-11-24T06:15:32.245Z,99126.75
2023-11-24T06:18:34.404Z,99133.66
2023-11-24T06:21:37.321Z,99130.50
2023-11-24T06:24:39.340Z,99139.37
2023-11-24T06:27:41.269Z,99135.19
2023-11-24T06:30:43.539Z,99143.06
2023-11-24T06:33:45.767Z,99141.53
2023-11-24T06:36:47.885Z,99131.56
2023-11-24T06:39:50.183Z,99130.59
2023-11-24T06:42:52.168Z,99123.09
2023-11-24T06:45:54.145Z,99142.28
2023-11-24T06:48:56.211Z,99139.31
2023-11-24T06:51:58.260Z,99147.22
2023-11-24T06:55:00.451Z,99138.78
2023-11-24T06:58:02.441Z,99142.63
2023-11-24T07:01:06.110Z,99137.59
2023-11-24T07:04:08.526Z,99147.81
2023-11-24T07:07:10.532Z,99138.41
2023-11-24T07:10:14.584Z,99148.25
2023-11-24T07:13:17.027Z,99161.28
2023-11-24T07:16:19.132Z,99143.97
2023-11-24T07:19:23.136Z,99152.28
2023-11-24T07:22:26.137Z,99144.38
2023-11-24T07:25:28.111Z,99146.00
2023-11-24T07:28:29.959Z,99142.53
2023-11-24T07:31:32.008Z,99158.34
2023-11-24T07:34:34.249Z,99168.28
2023-11-24T07:37:36.304Z,99188.50
2023-11-24T07:40:38.250Z,99203.25
2023-11-24T07:43:40.370Z,99201.44
2023-11-24T07:46:42.430Z,99177.34
2023-11-24T07:49:44.473Z,99177.59
2023-11-24T07:52:47.861Z,99169.22
2023-11-24T07:55:50.492Z,99173.19
2023-11-24T07:58:52.575Z,99159.50
2023-11-24T08:01:54.579Z,99156.16
2023-11-24T08:04:56.601Z,99150.84
2023-11-24T08:07:59.430Z,99155.50
2023-11-24T08:11:01.336Z,99157.19
2023-11-24T08:14:06.194Z,99172.50
2023-11-24T08:17:08.164Z,99171.34
2023-11-24T08:20:11.879Z,99164.44
2023-11-24T08:23:16.750Z,99153.66
2023-11-24T08:26:19.259Z,99159.78
2023-11-24T08:29:21.198Z,99169.00
2023-11-24T08:32:23.128Z,99155.63
2023-11-24T08:35:26.612Z,99163.37
2023-11-24T08:38:28.542Z,99151.75
2023-11-24T08:41:38.080Z,99146.84
2023-11-24T08:44:43.034Z,99149.13
2023-11-24T08:47:45.141Z,99168.03
2023-11-24T08:50:47.425Z,99177.66
2023-11-24T08:53:49.581Z,99175.16
2023-11-24T08:56:51.984Z,99179.84
2023-11-24T08:59:57.421Z,99167.44
2023-11-24T09:03:00.891Z,99165.38
2023-11-24T09:06:03.881Z,99158.81
2023-11-24T09:09:08.983Z,99141.88
2023-11-24T09:12:11.733Z,99122.25
2023-11-24T09:15:13.966Z,99126.97
2023-11-24T09:18:16.017Z,99127.81
2023-11-24T09:21:19.439Z,99111.34
2023-11-24T09:24:21.939Z,99083.94
2023-11-24T09:27:23.917Z,99100.53
2023-11-24T09:30:25.978Z,99100.09
2023-11-24T09:33:28.028Z,99094.34
2023-11-24T09:36:29.984Z,99086.97
2023-11-24T09:39:31.929Z,99080.47
2023-11-24T09:42:39.174Z,99077.00
2023-11-24T09:45:41.136Z,99053.78
2023-11-24T09:48:46.217Z,99043.00
2023-11-24T09:51:48.249Z,99053.91
2023-11-24T09:54:50.228Z,99043.41
2023-11-24T09:57:52.328Z,99019.41
2023-11-24T10:01:06.938Z,99040.28
2023-11-24T10:04:10.509Z,99034.59
2023-11-24T10:07:18.308Z,99033.94
2023-11-24T10:10:26.073Z,99012.31
2023-11-24T10:13:28.405Z,99014.97
2023-11-24T10:16:31.624Z,99003.78
2023-11-24T10:19:33.843Z,98994.44
2023-11-24T10:22:35.831Z,99008.13
2023-11-24T10:25:37.848Z,99006.22
2023-11-24T10:28:40.023Z,98999.84
2023-11-24T10:31:41.942Z,98997.94
2023-11-24T10:34:44.820Z,98982.47
2023-11-24T10:37:46.895Z,98969.25
2023-11-24T10:40:50.532Z,98966.59
2023-11-24T10:43:52.841Z,98947.31
2023-11-24T10:46:54.805Z,98918.81
2023-11-24T10:50:04.457Z,98903.16
2023-11-24T10:53:10.144Z,98900.03
2023-11-24T10:56:12.181Z,98894.75
2023-11-24T10:59:15.162Z,98899.78
2023-11-24T11:02:18.153Z,98886.38
2023-11-24T11:05:20.381Z,98901.34
2023-11-24T11:08:29.642Z,98902.41
2023-11-24T11:11:41.194Z,98917.53
2023-11-24T11:14:43.305Z,98924.19
2023-11-24T11:17:49.030Z,98939.81
2023-11-24T11:20:51.989Z,98931.53
2023-11-24T11:23:57.457Z,98929.59
2023-11-24T11:26:59.607Z,98926.59
2023-11-24T11:30:01.722Z,98942.09
2023-11-24T11:33:04.692Z,98940.53
2023-11-24T11:36:07.084Z,98943.78
2023-11-24T11:39:10.529Z,98945.78
2023-11-24T11:42:12.520Z,98933.13
2023-11-24T11:45:19.747Z,98926.63
2023-11-24T11:48:21.900Z,98928.47
2023-11-24T11:51:23.895Z,98925.38
2023-11-24T11:54:25.849Z,98906.75
2023-11-24T11:57:29.243Z,98906.75
2023-11-24T12:00:31.495Z,98900.19
2023-11-24T12:03:33.878Z,98903.81
2023-11-24T12:06:35.906Z,98897.97
2023-11-24T12:09:38.362Z,98895.53
2023-11-24T12:12:41.546Z,98906.09
2023-11-24T12:15:44.006Z,98911.25
2023-11-24T12:18:51.364Z,98892.47
2023-11-24T12:21:53.406Z,98900.44
2023-11-24T12:24:55.540Z,98899.81
2023-11-24T12:27:58.068Z,98896.97
2023-11-24T12:31:02.745Z,98913.28
2023-11-24T12:34:05.638Z,98913.13
2023-11-24T12:37:08.196Z,98893.25
2023-11-24T12:40:13.438Z,98915.22
2023-11-24T12:43:15.773Z,98901.28
2023-11-24T12:46:21.712Z,98898.06
2023-11-24T12:49:24.054Z,98885.97
2023-11-24T12:52:25.943Z,98901.19
2023-11-24T12:55:27.868Z,98915.88
2023-11-24T12:58:30.487Z,98925.44
2023-11-24T13:01:33.355Z,98910.81
2023-11-24T13:04:35.428Z,98897.31
2023-11-24T13:07:38.044Z,98903.81
2023-11-24T13:10:41.820Z,98901.63
2023-11-24T13:13:45.045Z,98886.56
2023-11-24T13:16:49.929Z,98875.31
2023-11-24T13:19:53.519Z,98867.72
2023-11-24T13:22:55.625Z,98834.53
2023-11-24T13:25:58.354Z,98838.66
2023-11-24T13:29:00.342Z,98864.06
2023-11-24T13:32:03.330Z,98863.63
2023-11-24T13:35:05.984Z,98845.00
2023-11-24T13:38:08.088Z,98831.25
2023-11-24T13:41:11.381Z,98832.47
2023-11-24T13:44:13.915Z,98837.06
2023-11-24T13:47:15.888Z,98822.28
2023-11-24T13:50:20.001Z,98805.13
2023-11-24T13:53:22.079Z,98822.38
2023-11-24T13:56:25.800Z,98809.84
2023-11-24T13:59:27.992Z,98807.78
2023-11-24T14:02:30.069Z,98804.22
2023-11-24T14:05:32.123Z,98793.72
2023-11-24T14:08:37.104Z,98780.66
2023-11-24T14:11:39.515Z,98787.72
2023-11-24T14:14:41.681Z,98792.44
2023-11-24T14:17:43.890Z,98784.09
2023-11-24T14:20:48.664Z,98785.81
2023-11-24T14:23:50.544Z,98782.31
2023-11-24T14:26:52.566Z,98773.97
2023-11-24T14:29:54.936Z,98771.12
2023-11-24T14:32:59.154Z,98771.53
2023-11-24T14:36:01.824Z,98795.22
2023-11-24T14:39:04.661Z,98797.25
2023-11-24T14:42:06.673Z,98783.50
2023-11-24T14:45:10.215Z,98790.16
2023-11-24T14:48:12.233Z,98789.78
2023-11-24T14:51:14.219Z,98786.78
2023-11-24T14:54:17.169Z,98788.25
2023-11-24T14:57:21.565Z,98792.19
2023-11-24T15:00:41.499Z,98797.53
2023-11-24T15:03:45.571Z,98794.47
2023-11-24T15:06:51.933Z,98794.44
2023-11-24T15:09:54.598Z,98795.31
2023-11-24T15:12:56.520Z,98780.94
2023-11-24T15:15:59.957Z,98757.91
2023-11-24T15:19:02.008Z,98764.69
2023-11-24T15:22:10.125Z,98779.03
2023-11-24T15:25:14.369Z,98778.69
2023-11-24T15:28:22.296Z,98768.44
2023-11-24T15:31:28.155Z,98778.28
2023-11-24T15:34:30.349Z,98763.09
2023-11-24T15:37:32.329Z,98761.09
2023-11-24T15:40:34.239Z,98748.66
2023-11-24T15:43:36.129Z,98749.97
2023-11-24T15:46:39.745Z,98754.38
2023-11-24T15:49:42.891Z,98781.87
2023-11-24T15:52:45.441Z,98789.09
2023-11-24T15:55:48.054Z,98793.03
2023-11-24T15:58:52.773Z,98782.56
2023-11-24T16:01:58.545Z,98784.72
2023-11-24T16:05:02.558Z,98788.75
2023-11-24T16:08:09.040Z,98782.81
2023-11-24T16:11:11.820Z,98778.56
2023-11-24T16:14:14.215Z,98766.91
2023-11-24T16:17:16.234Z,98755.47
2023-11-24T16:20:18.639Z,98752.41
2023-11-24T16:23:21.662Z,98780.03
2023-11-24T16:26:24.632Z,98782.63
2023-11-24T16:29:26.466Z,98785.56
2023-11-24T16:32:29.065Z,98788.59
2023-11-24T16:35:31.051Z,98783.41
2023-11-24T16:38:35.834Z,98783.75
2023-11-24T16:41:38.365Z,98779.22
2023-11-24T16:44:40.544Z,98769.56
2023-11-24T16:47:43.946Z,98777.97
2023-11-24T16:50:47.356Z,98767.56
2023-11-24T16:53:49.606Z,98766.50
2023-11-24T16:56:51.620Z,98772.25
2023-11-24T16:59:54.246Z,98785.72
2023-11-24T17:02:56.476Z,98753.16
2023-11-24T17:05:58.825Z,98732.44
2023-11-24T17:09:00.964Z,98744.88
2023-11-24T17:12:03.114Z,98738.19
2023-11-24T17:15:06.220Z,98756.63
2023-11-24T17:18:10.726Z,98751.41
2023-11-24T17:21:13.863Z,98742.91
2023-11-24T17:24:16.824Z,98727.72
2023-11-24T17:27:19.030Z,98713.75
2023-11-24T17:30:23.767Z,98721.50
2023-11-24T17:33:25.986Z,98719.28
2023-11-24T17:36:28.156Z,98729.56
2023-11-24T17:39:30.251Z,98731.34
2023-11-24T17:42:32.480Z,98723.31
2023-11-24T17:45:35.675Z,98719.34
2023-11-24T17:48:37.877Z,98704.06
2023-11-24T17:51:42.596Z,98709.72
2023-11-24T17:54:45.481Z,98694.28
2023-11-24T17:57:52.062Z,98689.03
2023-11-24T18:00:54.658Z,98675.44
2023-11-24T18:03:56.952Z,98686.28
2023-11-24T18:06:59.303Z,98683.63
2023-11-24T18:10:01.594Z,98685.16
2023-11-24T18:13:03.979Z,98676.66
2023-11-24T18:16:07.818Z,98695.13
2023-11-24T18:19:10.180Z,98705.00
2023-11-24T18:22:13.621Z,98706.69
2023-11-24T18:25:15.816Z,98718.03
2023-11-24T18:28:17.959Z,98694.72
2023-11-24T18:31:20.912Z,98697.81
2023-11-24T18:34:39.580Z,98726.00
2023-11-24T18:37:43.184Z,98721.22
2023-11-24T18:40:45.339Z,98733.44
2023-11-24T18:43:47.546Z,98732.69
2023-11-24T18:46:49.689Z,98714.34
2023-11-24T18:49:51.840Z,98707.31
2023-11-24T18:52:53.986Z,98712.66
2023-11-24T18:55:56.134Z,98721.28
2023-11-24T18:58:58.324Z,98700.44
2023-11-24T19:02:00.473Z,98700.16
2023-11-24T19:05:02.776Z,98695.09
2023-11-24T19:08:05.875Z,98687.03
2023-11-24T19:11:10.075Z,98712.16
2023-11-24T19:14:12.169Z,98706.13
2023-11-24T19:17:15.867Z,98700.00
2023-11-24T19:20:21.172Z,98711.78
2023-11-24T19:23:23.502Z,98712.53
2023-11-24T19:26:25.673Z,98710.63
2023-11-24T19:29:27.838Z,98699.94
2023-11-24T19:32:30.091Z,98696.97
2023-11-24T19:35:32.344Z,98699.03
2023-11-24T19:38:34.474Z,98718.72
2023-11-24T19:41:36.696Z,98732.44
2023-11-24T19:44:39.113Z,98747.78
2023-11-24T19:47:41.359Z,98757.00
2023-11-24T19:50:43.493Z,98774.63
2023-11-24T19:53:48.727Z,98754.16
2023-11-24T19:56:52.270Z,98724.34
2023-11-24T19:59:56.525Z,98719.63
2023-11-24T20:02:58.936Z,98741.44
2023-11-24T20:06:01.328Z,98741.72
2023-11-24T20:09:04.991Z,98748.59
2023-11-24T20:12:10.560Z,98759.63
2023-11-24T20:15:12.945Z,98769.03
2023-11-24T20:18:15.181Z,98767.78
2023-11-24T20:21:17.425Z,98755.78
2023-11-24T20:24:19.604Z,98748.94
2023-11-24T20:27:22.728Z,98740.53
2023-11-24T20:30:24.909Z,98728.22
2023-11-24T20:33:27.061Z,98724.66
2023-11-24T20:36:29.544Z,98725.00
2023-11-24T20:39:31.632Z,98713.00
2023-11-24T20:42:33.778Z,98686.94
2023-11-24T20:45:36.757Z,98707.91
2023-11-24T20:48:39.547Z,98729.47
2023-11-24T20:51:41.722Z,98723.62
2023-11-24T20:54:45.287Z,98729.88
2023-11-24T20:57:48.100Z,98734.19
2023-11-24T21:00:50.349Z,98724.31
2023-11-24T21:03:52.585Z,98718.19
2023-11-24T21:06:55.351Z,98719.38
2023-11-24T21:09:57.638Z,98723.97
2023-11-24T21:12:59.851Z,98707.09
2023-11-24T21:16:02.077Z,98696.13
2023-11-24T21:19:05.814Z,98705.09
2023-11-24T21:22:07.953Z,98705.94
2023-11-24T21:25:10.252Z,98694.03
2023-11-24T21:28:12.401Z,98688.53
2023-11-24T21:31:18.248Z,98690.22
2023-11-24T21:34:20.502Z,98696.97
2023-11-24T21:37:27.893Z,98689.63
2023-11-24T21:40:30.084Z,98676.63
2023-11-24T21:43:32.364Z,98682.28
2023-11-24T21:46:34.837Z,98682.78
2023-11-24T21:49:38.441Z,98686.09
2023-11-24T21:52:40.786Z,98675.94
2023-11-24T21:55:44.281Z,98679.09
2023-11-24T21:58:46.608Z,98687.69
2023-11-24T22:01:49.263Z,98697.47
2023-11-24T22:04:51.634Z,98695.13
2023-11-24T22:07:53.806Z,98708.44
2023-11-24T22:10:55.935Z,98722.94
2023-11-24T22:13:58.152Z,98729.44
2023-11-24T22:17:00.987Z,98733.69
2023-11-24T22:20:12.263Z,98735.56
2023-11-24T22:23:14.598Z,98736.16
2023-11-24T22:26:20.083Z,98736.22
2023-11-24T22:29:24.600Z,98741.72
2023-11-24T22:32:28.507Z,98728.56
2023-11-24T22:35:30.625Z,98739.28
2023-11-24T22:38:32.856Z,98732.69
2023-11-24T22:41:34.942Z,98729.22
2023-11-24T22:44:37.048Z,98725.69
2023-11-24T22:47:39.930Z,98728.78
2023-11-24T22:50:42.308Z,98727.81
2023-11-24T22:53:44.392Z,98723.50
2023-11-24T22:56:46.713Z,98713.56
2023-11-24T22:59:51.962Z,98702.12
2023-11-24T23:02:54.354Z,98711.28
2023-11-24T23:05:56.507Z,98709.03
2023-11-24T23:08:58.756Z,98704.78
2023-11-24T23:12:00.837Z,98712.03
2023-11-24T23:15:02.923Z,98711.00
2023-11-24T23:18:05.772Z,98713.47
2023-11-24T23:21:08.467Z,98697.78
2023-11-24T23:24:12.250Z,98689.56
2023-11-24T23:27:14.452Z,98691.91
2023-11-24T23:30:16.716Z,98692.28
2023-11-24T23:33:19.121Z,98698.00
2023-11-24T23:36:21.349Z,98689.75
2023-11-24T23:39:25.009Z,98683.22
2023-11-24T23:42:28.314Z,98713.91
2023-11-24T23:45:30.483Z,98696.47
2023-11-24T23:48:33.485Z,98715.38
2023-11-24T23:51:36.178Z,98697.31
2023-11-24T23:54:38.298Z,98703.41
2023-11-24T23:57:40.424Z,98705.31
